sensor_id;sensor_type;location;lat;lon;timestamp;temperature;humidity
12682;DHT22;6405;59.208;18.216;2024-01-16T00:02:01;-10.90;99.90
12682;DHT22;6405;59.208;18.216;2024-01-16T00:04:27;-10.90;99.90
12682;DHT22;6405;59.208;18.216;2024-01-16T00:06:55;-10.90;99.90
12682;DHT22;6405;59.208;18.216;2024-01-16T00:09:21;-10.80;99.90
12682;DHT22;6405;59.208;18.216;2024-01-16T00:11:46;-10.80;99.90
12682;DHT22;6405;59.208;18.216;2024-01-16T00:14:12;-10.80;99.90
12682;DHT22;6405;59.208;18.216;2024-01-16T00:16:45;-10.80;99.90
12682;DHT22;6405;59.208;18.216;2024-01-16T00:19:11;-10.80;99.90
12682;DHT22;6405;59.208;18.216;2024-01-16T00:21:41;-10.80;99.90
12682;DHT22;6405;59.208;18.216;2024-01-16T00:24:07;-10.80;99.90
12682;DHT22;6405;59.208;18.216;2024-01-16T00:26:33;-10.90;99.90
12682;DHT22;6405;59.208;18.216;2024-01-16T00:28:59;-10.90;99.90
12682;DHT22;6405;59.208;18.216;2024-01-16T00:31:24;-11.00;99.90
12682;DHT22;6405;59.208;18.216;2024-01-16T00:33:50;-11.10;99.90
12682;DHT22;6405;59.208;18.216;2024-01-16T00:36:16;-11.10;99.90
12682;DHT22;6405;59.208;18.216;2024-01-16T00:38:41;-11.20;99.90
12682;DHT22;6405;59.208;18.216;2024-01-16T00:41:07;-11.20;99.90
12682;DHT22;6405;59.208;18.216;2024-01-16T00:43:33;-11.30;99.90
12682;DHT22;6405;59.208;18.216;2024-01-16T00:46:00;-11.30;99.90
12682;DHT22;6405;59.208;18.216;2024-01-16T00:48:26;-11.40;99.90
12682;DHT22;6405;59.208;18.216;2024-01-16T00:50:52;-11.40;99.90
12682;DHT22;6405;59.208;18.216;2024-01-16T00:53:18;-11.50;99.90
12682;DHT22;6405;59.208;18.216;2024-01-16T00:55:43;-11.50;99.90
12682;DHT22;6405;59.208;18.216;2024-01-16T00:58:09;-11.50;99.90
12682;DHT22;6405;59.208;18.216;2024-01-16T01:00:35;-11.50;99.90
12682;DHT22;6405;59.208;18.216;2024-01-16T01:03:03;-11.50;99.90
12682;DHT22;6405;59.208;18.216;2024-01-16T01:05:29;-11.30;99.90
12682;DHT22;6405;59.208;18.216;2024-01-16T01:07:55;-11.50;99.90
12682;DHT22;6405;59.208;18.216;2024-01-16T01:10:21;-11.50;99.90
12682;DHT22;6405;59.208;18.216;2024-01-16T01:12:47;-11.60;99.90
12682;DHT22;6405;59.208;18.216;2024-01-16T01:15:13;-11.50;99.90
12682;DHT22;6405;59.208;18.216;2024-01-16T01:17:41;-11.50;99.90
12682;DHT22;6405;59.208;18.216;2024-01-16T01:20:10;-11.50;99.90
12682;DHT22;6405;59.208;18.216;2024-01-16T01:22:38;-11.60;99.90
12682;DHT22;6405;59.208;18.216;2024-01-16T01:25:04;-11.60;99.90
12682;DHT22;6405;59.208;18.216;2024-01-16T01:27:30;-11.60;99.90
12682;DHT22;6405;59.208;18.216;2024-01-16T01:29:56;-11.60;99.90
12682;DHT22;6405;59.208;18.216;2024-01-16T01:32:21;-11.60;99.90
12682;DHT22;6405;59.208;18.216;2024-01-16T01:34:47;-11.70;99.90
12682;DHT22;6405;59.208;18.216;2024-01-16T01:37:13;-11.70;99.90
12682;DHT22;6405;59.208;18.216;2024-01-16T01:39:40;-11.70;99.90
12682;DHT22;6405;59.208;18.216;2024-01-16T01:42:05;-11.70;99.90
12682;DHT22;6405;59.208;18.216;2024-01-16T01:44:31;-11.80;99.90
12682;DHT22;6405;59.208;18.216;2024-01-16T01:46:57;-11.80;99.90
12682;DHT22;6405;59.208;18.216;2024-01-16T01:49:23;-11.80;99.90
12682;DHT22;6405;59.208;18.216;2024-01-16T01:51:50;-11.80;99.90
12682;DHT22;6405;59.208;18.216;2024-01-16T01:54:16;-11.80;99.90
12682;DHT22;6405;59.208;18.216;2024-01-16T01:56:44;-11.90;99.90
12682;DHT22;6405;59.208;18.216;2024-01-16T01:59:11;-11.90;99.90
12682;DHT22;6405;59.208;18.216;2024-01-16T02:01:37;-12.00;99.90
12682;DHT22;6405;59.208;18.216;2024-01-16T02:04:04;-12.00;99.90
12682;DHT22;6405;59.208;18.216;2024-01-16T02:06:30;-12.10;99.90
12682;DHT22;6405;59.208;18.216;2024-01-16T02:08:57;-12.10;99.90
12682;DHT22;6405;59.208;18.216;2024-01-16T02:11:23;-12.20;99.90
12682;DHT22;6405;59.208;18.216;2024-01-16T02:13:48;-12.20;99.90
12682;DHT22;6405;59.208;18.216;2024-01-16T02:16:24;-12.30;99.90
12682;DHT22;6405;59.208;18.216;2024-01-16T02:18:50;-12.30;99.90
12682;DHT22;6405;59.208;18.216;2024-01-16T02:21:25;-12.30;99.90
12682;DHT22;6405;59.208;18.216;2024-01-16T02:23:53;-12.40;99.90
12682;DHT22;6405;59.208;18.216;2024-01-16T02:26:19;-12.40;99.90
12682;DHT22;6405;59.208;18.216;2024-01-16T02:28:45;-12.40;99.90
12682;DHT22;6405;59.208;18.216;2024-01-16T02:31:11;-12.50;99.90
12682;DHT22;6405;59.208;18.216;2024-01-16T02:33:37;-12.50;99.90
12682;DHT22;6405;59.208;18.216;2024-01-16T02:36:04;-12.60;99.90
12682;DHT22;6405;59.208;18.216;2024-01-16T02:38:29;-12.60;99.90
12682;DHT22;6405;59.208;18.216;2024-01-16T02:40:55;-12.70;99.90
12682;DHT22;6405;59.208;18.216;2024-01-16T02:43:21;-12.70;99.90
12682;DHT22;6405;59.208;18.216;2024-01-16T02:45:47;-12.80;99.90
12682;DHT22;6405;59.208;18.216;2024-01-16T02:48:13;-12.80;99.90
12682;DHT22;6405;59.208;18.216;2024-01-16T02:50:39;-12.80;99.90
12682;DHT22;6405;59.208;18.216;2024-01-16T02:53:04;-12.80;99.90
12682;DHT22;6405;59.208;18.216;2024-01-16T02:55:30;-12.90;99.90
12682;DHT22;6405;59.208;18.216;2024-01-16T02:57:56;-12.90;99.90
12682;DHT22;6405;59.208;18.216;2024-01-16T03:00:21;-12.90;99.90
12682;DHT22;6405;59.208;18.216;2024-01-16T03:02:48;-12.90;99.90
12682;DHT22;6405;59.208;18.216;2024-01-16T03:05:14;-12.90;99.90
12682;DHT22;6405;59.208;18.216;2024-01-16T03:07:41;-13.00;99.90
12682;DHT22;6405;59.208;18.216;2024-01-16T03:10:07;-13.10;99.90
12682;DHT22;6405;59.208;18.216;2024-01-16T03:12:33;-13.10;99.90
12682;DHT22;6405;59.208;18.216;2024-01-16T03:14:58;-13.20;99.90
12682;DHT22;6405;59.208;18.216;2024-01-16T03:17:24;-13.20;99.90
12682;DHT22;6405;59.208;18.216;2024-01-16T03:19:50;-13.30;99.90
12682;DHT22;6405;59.208;18.216;2024-01-16T03:22:16;-13.30;99.90
12682;DHT22;6405;59.208;18.216;2024-01-16T03:24:41;-13.30;99.90
12682;DHT22;6405;59.208;18.216;2024-01-16T03:27:07;-13.30;99.90
12682;DHT22;6405;59.208;18.216;2024-01-16T03:29:33;-13.20;99.90
12682;DHT22;6405;59.208;18.216;2024-01-16T03:31:59;-13.30;99.90
12682;DHT22;6405;59.208;18.216;2024-01-16T03:34:26;-13.30;99.90
12682;DHT22;6405;59.208;18.216;2024-01-16T03:36:52;-13.30;99.90
12682;DHT22;6405;59.208;18.216;2024-01-16T03:39:18;-13.40;99.90
12682;DHT22;6405;59.208;18.216;2024-01-16T03:41:44;-13.40;99.90
12682;DHT22;6405;59.208;18.216;2024-01-16T03:44:09;-13.40;99.90
12682;DHT22;6405;59.208;18.216;2024-01-16T03:46:35;-13.40;99.90
12682;DHT22;6405;59.208;18.216;2024-01-16T03:49:01;-13.40;99.90
12682;DHT22;6405;59.208;18.216;2024-01-16T03:51:26;-13.50;99.90
12682;DHT22;6405;59.208;18.216;2024-01-16T03:53:52;-13.50;99.90
12682;DHT22;6405;59.208;18.216;2024-01-16T03:56:18;-13.50;99.90
12682;DHT22;6405;59.208;18.216;2024-01-16T03:58:44;-13.50;99.90
12682;DHT22;6405;59.208;18.216;2024-01-16T04:01:09;-13.50;99.90
12682;DHT22;6405;59.208;18.216;2024-01-16T04:03:35;-13.50;99.90
12682;DHT22;6405;59.208;18.216;2024-01-16T04:06:01;-13.50;99.90
12682;DHT22;6405;59.208;18.216;2024-01-16T04:08:27;-13.50;99.90
12682;DHT22;6405;59.208;18.216;2024-01-16T04:10:52;-13.60;99.90
12682;DHT22;6405;59.208;18.216;2024-01-16T04:13:18;-13.60;99.90
12682;DHT22;6405;59.208;18.216;2024-01-16T04:15:44;-13.60;99.90
12682;DHT22;6405;59.208;18.216;2024-01-16T04:18:10;-13.60;99.90
12682;DHT22;6405;59.208;18.216;2024-01-16T04:20:35;-13.60;99.90
12682;DHT22;6405;59.208;18.216;2024-01-16T04:23:02;-13.60;99.90
12682;DHT22;6405;59.208;18.216;2024-01-16T04:25:28;-13.60;99.90
12682;DHT22;6405;59.208;18.216;2024-01-16T04:27:53;-13.60;99.90
12682;DHT22;6405;59.208;18.216;2024-01-16T04:30:19;-13.60;99.90
12682;DHT22;6405;59.208;18.216;2024-01-16T04:32:45;-13.60;99.90
12682;DHT22;6405;59.208;18.216;2024-01-16T04:35:11;-13.70;99.90
12682;DHT22;6405;59.208;18.216;2024-01-16T04:37:37;-13.70;99.90
12682;DHT22;6405;59.208;18.216;2024-01-16T04:40:04;-13.70;99.90
12682;DHT22;6405;59.208;18.216;2024-01-16T04:42:33;-13.70;99.90
12682;DHT22;6405;59.208;18.216;2024-01-16T04:44:59;-13.70;99.90
12682;DHT22;6405;59.208;18.216;2024-01-16T04:47:25;-13.70;99.90
12682;DHT22;6405;59.208;18.216;2024-01-16T04:49:51;-13.70;99.90
12682;DHT22;6405;59.208;18.216;2024-01-16T04:52:17;-13.70;99.90
12682;DHT22;6405;59.208;18.216;2024-01-16T04:54:42;-13.70;99.90
12682;DHT22;6405;59.208;18.216;2024-01-16T04:57:10;-13.70;99.90
12682;DHT22;6405;59.208;18.216;2024-01-16T04:59:36;-13.70;99.90
12682;DHT22;6405;59.208;18.216;2024-01-16T05:02:02;-13.70;99.90
12682;DHT22;6405;59.208;18.216;2024-01-16T05:04:27;-13.70;99.90
12682;DHT22;6405;59.208;18.216;2024-01-16T05:06:53;-13.70;99.90
12682;DHT22;6405;59.208;18.216;2024-01-16T05:09:19;-13.70;99.90
12682;DHT22;6405;59.208;18.216;2024-01-16T05:11:47;-13.70;99.90
12682;DHT22;6405;59.208;18.216;2024-01-16T05:14:13;-13.70;99.90
12682;DHT22;6405;59.208;18.216;2024-01-16T05:16:39;-13.70;99.90
12682;DHT22;6405;59.208;18.216;2024-01-16T05:19:05;-13.70;99.90
12682;DHT22;6405;59.208;18.216;2024-01-16T05:21:30;-13.80;99.90
12682;DHT22;6405;59.208;18.216;2024-01-16T05:23:56;-13.80;99.90
12682;DHT22;6405;59.208;18.216;2024-01-16T05:26:22;-13.80;99.90
12682;DHT22;6405;59.208;18.216;2024-01-16T05:28:48;-13.80;99.90
12682;DHT22;6405;59.208;18.216;2024-01-16T05:31:13;-13.80;99.90
12682;DHT22;6405;59.208;18.216;2024-01-16T05:33:39;-13.80;99.90
12682;DHT22;6405;59.208;18.216;2024-01-16T05:36:05;-13.90;99.90
12682;DHT22;6405;59.208;18.216;2024-01-16T05:38:30;-13.90;99.90
12682;DHT22;6405;59.208;18.216;2024-01-16T05:40:56;-14.00;99.90
12682;DHT22;6405;59.208;18.216;2024-01-16T05:43:22;-14.00;99.90
12682;DHT22;6405;59.208;18.216;2024-01-16T05:45:48;-14.00;99.90
12682;DHT22;6405;59.208;18.216;2024-01-16T05:48:13;-14.00;99.90
12682;DHT22;6405;59.208;18.216;2024-01-16T05:50:39;-14.00;99.90
12682;DHT22;6405;59.208;18.216;2024-01-16T05:53:05;-14.00;99.90
12682;DHT22;6405;59.208;18.216;2024-01-16T05:55:30;-14.00;99.90
12682;DHT22;6405;59.208;18.216;2024-01-16T05:57:58;-14.00;99.90
12682;DHT22;6405;59.208;18.216;2024-01-16T06:00:26;-14.00;99.90
12682;DHT22;6405;59.208;18.216;2024-01-16T06:02:52;-14.10;99.90
12682;DHT22;6405;59.208;18.216;2024-01-16T06:05:17;-14.10;99.90
12682;DHT22;6405;59.208;18.216;2024-01-16T06:07:43;-14.20;99.90
12682;DHT22;6405;59.208;18.216;2024-01-16T06:10:14;-14.20;99.90
12682;DHT22;6405;59.208;18.216;2024-01-16T06:12:40;-14.10;99.90
12682;DHT22;6405;59.208;18.216;2024-01-16T06:15:06;-14.10;99.90
12682;DHT22;6405;59.208;18.216;2024-01-16T06:17:32;-14.10;99.90
12682;DHT22;6405;59.208;18.216;2024-01-16T06:19:57;-14.20;99.90
12682;DHT22;6405;59.208;18.216;2024-01-16T06:22:23;-14.20;99.90
12682;DHT22;6405;59.208;18.216;2024-01-16T06:24:49;-14.20;99.90
12682;DHT22;6405;59.208;18.216;2024-01-16T06:27:15;-14.20;99.90
12682;DHT22;6405;59.208;18.216;2024-01-16T06:29:50;-14.30;99.90
12682;DHT22;6405;59.208;18.216;2024-01-16T06:32:16;-14.30;99.90
12682;DHT22;6405;59.208;18.216;2024-01-16T06:34:42;-14.30;99.90
12682;DHT22;6405;59.208;18.216;2024-01-16T06:37:08;-14.30;99.90
12682;DHT22;6405;59.208;18.216;2024-01-16T06:39:34;-14.30;99.90
12682;DHT22;6405;59.208;18.216;2024-01-16T06:42:00;-14.30;99.90
12682;DHT22;6405;59.208;18.216;2024-01-16T06:44:26;-14.30;99.90
12682;DHT22;6405;59.208;18.216;2024-01-16T06:46:51;-14.30;99.90
12682;DHT22;6405;59.208;18.216;2024-01-16T06:49:17;-14.30;99.90
12682;DHT22;6405;59.208;18.216;2024-01-16T06:51:43;-14.40;99.90
12682;DHT22;6405;59.208;18.216;2024-01-16T06:54:08;-14.40;99.90
12682;DHT22;6405;59.208;18.216;2024-01-16T06:56:34;-14.40;99.90
12682;DHT22;6405;59.208;18.216;2024-01-16T06:59:00;-14.40;99.90
12682;DHT22;6405;59.208;18.216;2024-01-16T07:01:26;-14.40;99.90
12682;DHT22;6405;59.208;18.216;2024-01-16T07:03:54;-14.40;99.90
12682;DHT22;6405;59.208;18.216;2024-01-16T07:06:20;-14.40;99.90
12682;DHT22;6405;59.208;18.216;2024-01-16T07:08:46;-14.40;99.90
12682;DHT22;6405;59.208;18.216;2024-01-16T07:11:11;-14.40;99.90
12682;DHT22;6405;59.208;18.216;2024-01-16T07:13:40;-14.40;99.90
12682;DHT22;6405;59.208;18.216;2024-01-16T07:16:09;-14.40;99.90
12682;DHT22;6405;59.208;18.216;2024-01-16T07:18:35;-14.40;99.90
12682;DHT22;6405;59.208;18.216;2024-01-16T07:21:00;-14.30;99.90
12682;DHT22;6405;59.208;18.216;2024-01-16T07:23:30;-14.30;99.90
12682;DHT22;6405;59.208;18.216;2024-01-16T07:25:56;-14.30;99.90
12682;DHT22;6405;59.208;18.216;2024-01-16T07:28:21;-14.30;99.90
12682;DHT22;6405;59.208;18.216;2024-01-16T07:30:53;-14.30;99.90
12682;DHT22;6405;59.208;18.216;2024-01-16T07:33:19;-14.40;99.90
12682;DHT22;6405;59.208;18.216;2024-01-16T07:35:44;-14.30;99.90
12682;DHT22;6405;59.208;18.216;2024-01-16T07:38:13;-14.40;99.90
12682;DHT22;6405;59.208;18.216;2024-01-16T07:40:39;-14.40;99.90
12682;DHT22;6405;59.208;18.216;2024-01-16T07:43:04;-14.40;99.90
12682;DHT22;6405;59.208;18.216;2024-01-16T07:45:30;-14.40;99.90
12682;DHT22;6405;59.208;18.216;2024-01-16T07:47:56;-14.40;99.90
12682;DHT22;6405;59.208;18.216;2024-01-16T07:50:22;-14.40;99.90
12682;DHT22;6405;59.208;18.216;2024-01-16T07:52:47;-14.40;99.90
12682;DHT22;6405;59.208;18.216;2024-01-16T07:55:13;-14.40;99.90
12682;DHT22;6405;59.208;18.216;2024-01-16T07:57:39;-14.40;99.90
12682;DHT22;6405;59.208;18.216;2024-01-16T08:00:05;-14.40;99.90
12682;DHT22;6405;59.208;18.216;2024-01-16T08:02:34;-14.40;99.90
12682;DHT22;6405;59.208;18.216;2024-01-16T08:05:00;-14.40;99.90
12682;DHT22;6405;59.208;18.216;2024-01-16T08:07:27;-14.40;99.90
12682;DHT22;6405;59.208;18.216;2024-01-16T08:09:52;-14.40;99.90
12682;DHT22;6405;59.208;18.216;2024-01-16T08:12:18;-14.40;99.90
12682;DHT22;6405;59.208;18.216;2024-01-16T08:14:44;-14.30;99.90
12682;DHT22;6405;59.208;18.216;2024-01-16T08:17:09;-14.30;99.90
12682;DHT22;6405;59.208;18.216;2024-01-16T08:19:35;-14.30;99.90
12682;DHT22;6405;59.208;18.216;2024-01-16T08:22:01;-14.30;99.90
12682;DHT22;6405;59.208;18.216;2024-01-16T08:24:31;-14.20;99.90
12682;DHT22;6405;59.208;18.216;2024-01-16T08:26:57;-14.20;99.90
12682;DHT22;6405;59.208;18.216;2024-01-16T08:29:24;-14.20;99.90
12682;DHT22;6405;59.208;18.216;2024-01-16T08:31:50;-14.20;99.90
12682;DHT22;6405;59.208;18.216;2024-01-16T08:34:17;-14.20;99.90
12682;DHT22;6405;59.208;18.216;2024-01-16T08:36:44;-14.10;99.90
12682;DHT22;6405;59.208;18.216;2024-01-16T08:39:10;-14.20;99.90
12682;DHT22;6405;59.208;18.216;2024-01-16T08:41:36;-14.20;99.90
12682;DHT22;6405;59.208;18.216;2024-01-16T08:44:02;-14.20;99.90
12682;DHT22;6405;59.208;18.216;2024-01-16T08:46:27;-14.20;99.90
12682;DHT22;6405;59.208;18.216;2024-01-16T08:48:53;-14.20;99.90
12682;DHT22;6405;59.208;18.216;2024-01-16T08:51:19;-14.10;99.90
12682;DHT22;6405;59.208;18.216;2024-01-16T08:53:45;-14.10;99.90
12682;DHT22;6405;59.208;18.216;2024-01-16T08:56:11;-14.10;99.90
12682;DHT22;6405;59.208;18.216;2024-01-16T08:58:38;-14.10;99.90
12682;DHT22;6405;59.208;18.216;2024-01-16T09:01:04;-14.10;99.90
12682;DHT22;6405;59.208;18.216;2024-01-16T09:03:34;-14.10;99.90
12682;DHT22;6405;59.208;18.216;2024-01-16T09:06:00;-14.10;99.90
12682;DHT22;6405;59.208;18.216;2024-01-16T09:08:26;-14.00;99.90
12682;DHT22;6405;59.208;18.216;2024-01-16T09:10:53;-14.00;99.90
12682;DHT22;6405;59.208;18.216;2024-01-16T09:13:19;-14.00;99.90
12682;DHT22;6405;59.208;18.216;2024-01-16T09:15:46;-14.00;99.90
12682;DHT22;6405;59.208;18.216;2024-01-16T09:18:12;-14.00;99.90
12682;DHT22;6405;59.208;18.216;2024-01-16T09:20:38;-14.00;99.90
12682;DHT22;6405;59.208;18.216;2024-01-16T09:23:04;-13.90;99.90
12682;DHT22;6405;59.208;18.216;2024-01-16T09:25:30;-13.90;99.90
12682;DHT22;6405;59.208;18.216;2024-01-16T09:27:56;-13.90;99.90
12682;DHT22;6405;59.208;18.216;2024-01-16T09:30:21;-13.90;99.90
12682;DHT22;6405;59.208;18.216;2024-01-16T09:32:50;-13.90;99.90
12682;DHT22;6405;59.208;18.216;2024-01-16T09:35:16;-13.80;99.90
12682;DHT22;6405;59.208;18.216;2024-01-16T09:37:42;-13.70;99.90
12682;DHT22;6405;59.208;18.216;2024-01-16T09:40:08;-13.70;99.90
12682;DHT22;6405;59.208;18.216;2024-01-16T09:42:34;-13.70;99.90
12682;DHT22;6405;59.208;18.216;2024-01-16T09:45:03;-13.70;99.90
12682;DHT22;6405;59.208;18.216;2024-01-16T09:47:33;-13.60;99.90
12682;DHT22;6405;59.208;18.216;2024-01-16T09:50:02;-13.50;99.90
12682;DHT22;6405;59.208;18.216;2024-01-16T09:52:28;-13.50;99.90
12682;DHT22;6405;59.208;18.216;2024-01-16T09:54:55;-13.40;99.90
12682;DHT22;6405;59.208;18.216;2024-01-16T09:57:25;-13.40;99.90
12682;DHT22;6405;59.208;18.216;2024-01-16T09:59:51;-13.30;99.90
12682;DHT22;6405;59.208;18.216;2024-01-16T10:02:19;-13.30;99.90
12682;DHT22;6405;59.208;18.216;2024-01-16T10:04:46;-13.30;99.90
12682;DHT22;6405;59.208;18.216;2024-01-16T10:07:12;-13.20;99.90
12682;DHT22;6405;59.208;18.216;2024-01-16T10:09:39;-13.20;99.90
12682;DHT22;6405;59.208;18.216;2024-01-16T10:12:06;-13.20;99.90
12682;DHT22;6405;59.208;18.216;2024-01-16T10:14:33;-13.20;99.90
12682;DHT22;6405;59.208;18.216;2024-01-16T10:17:03;-13.10;99.90
12682;DHT22;6405;59.208;18.216;2024-01-16T10:19:31;-13.10;99.90
12682;DHT22;6405;59.208;18.216;2024-01-16T10:22:04;-13.10;99.90
12682;DHT22;6405;59.208;18.216;2024-01-16T10:24:30;-12.90;99.90
12682;DHT22;6405;59.208;18.216;2024-01-16T10:27:03;-13.00;99.90
12682;DHT22;6405;59.208;18.216;2024-01-16T10:29:29;-13.00;99.90
12682;DHT22;6405;59.208;18.216;2024-01-16T10:32:00;-13.00;99.90
12682;DHT22;6405;59.208;18.216;2024-01-16T10:34:25;-12.90;99.90
12682;DHT22;6405;59.208;18.216;2024-01-16T10:36:58;-12.90;99.90
12682;DHT22;6405;59.208;18.216;2024-01-16T10:39:25;-12.80;99.90
12682;DHT22;6405;59.208;18.216;2024-01-16T10:41:55;-12.70;99.90
12682;DHT22;6405;59.208;18.216;2024-01-16T10:44:21;-12.70;99.90
12682;DHT22;6405;59.208;18.216;2024-01-16T10:46:47;-12.60;99.90
12682;DHT22;6405;59.208;18.216;2024-01-16T10:49:12;-12.50;99.90
12682;DHT22;6405;59.208;18.216;2024-01-16T10:51:38;-12.50;99.90
12682;DHT22;6405;59.208;18.216;2024-01-16T10:54:07;-12.50;99.90
12682;DHT22;6405;59.208;18.216;2024-01-16T10:56:36;-12.40;99.90
12682;DHT22;6405;59.208;18.216;2024-01-16T11:01:50;-12.40;99.90
12682;DHT22;6405;59.208;18.216;2024-01-16T11:04:18;-12.30;99.90
12682;DHT22;6405;59.208;18.216;2024-01-16T11:06:51;-12.30;99.90
12682;DHT22;6405;59.208;18.216;2024-01-16T11:09:18;-12.30;99.90
12682;DHT22;6405;59.208;18.216;2024-01-16T11:11:47;-12.00;99.90
12682;DHT22;6405;59.208;18.216;2024-01-16T11:14:16;-12.20;99.90
12682;DHT22;6405;59.208;18.216;2024-01-16T11:16:42;-12.10;99.90
12682;DHT22;6405;59.208;18.216;2024-01-16T11:19:09;-12.10;99.90
12682;DHT22;6405;59.208;18.216;2024-01-16T11:21:36;-12.00;99.90
12682;DHT22;6405;59.208;18.216;2024-01-16T11:24:03;-11.90;99.90
12682;DHT22;6405;59.208;18.216;2024-01-16T11:26:39;-11.90;99.90
12682;DHT22;6405;59.208;18.216;2024-01-16T11:29:33;-11.80;99.90
12682;DHT22;6405;59.208;18.216;2024-01-16T11:32:00;-11.80;99.90
12682;DHT22;6405;59.208;18.216;2024-01-16T11:37:11;-11.60;99.90
12682;DHT22;6405;59.208;18.216;2024-01-16T11:39:38;-11.60;99.90
12682;DHT22;6405;59.208;18.216;2024-01-16T11:42:04;-11.60;99.90
12682;DHT22;6405;59.208;18.216;2024-01-16T11:47:10;-11.50;99.90
12682;DHT22;6405;59.208;18.216;2024-01-16T11:49:40;-11.50;99.90
12682;DHT22;6405;59.208;18.216;2024-01-16T11:52:06;-11.50;99.90
12682;DHT22;6405;59.208;18.216;2024-01-16T11:54:33;-11.40;99.90
12682;DHT22;6405;59.208;18.216;2024-01-16T12:00:04;-11.30;99.90
12682;DHT22;6405;59.208;18.216;2024-01-16T12:03:01;-11.20;99.90
12682;DHT22;6405;59.208;18.216;2024-01-16T12:05:28;-11.10;99.90
12682;DHT22;6405;59.208;18.216;2024-01-16T12:07:54;-11.10;99.90
12682;DHT22;6405;59.208;18.216;2024-01-16T12:10:22;-11.10;99.90
12682;DHT22;6405;59.208;18.216;2024-01-16T12:12:49;-11.10;99.90
12682;DHT22;6405;59.208;18.216;2024-01-16T12:15:20;-11.00;99.90
12682;DHT22;6405;59.208;18.216;2024-01-16T12:18:02;-11.00;99.90
12682;DHT22;6405;59.208;18.216;2024-01-16T12:20:33;-11.00;99.90
12682;DHT22;6405;59.208;18.216;2024-01-16T12:23:03;-10.90;99.90
12682;DHT22;6405;59.208;18.216;2024-01-16T12:25:31;-10.90;99.90
12682;DHT22;6405;59.208;18.216;2024-01-16T12:27:58;-11.20;99.90
12682;DHT22;6405;59.208;18.216;2024-01-16T12:30:32;-10.90;99.90
12682;DHT22;6405;59.208;18.216;2024-01-16T12:33:07;-10.90;99.90
12682;DHT22;6405;59.208;18.216;2024-01-16T12:35:34;-10.90;99.90
12682;DHT22;6405;59.208;18.216;2024-01-16T12:38:05;-10.90;99.90
12682;DHT22;6405;59.208;18.216;2024-01-16T12:40:32;-10.90;99.90
12682;DHT22;6405;59.208;18.216;2024-01-16T12:42:58;-10.90;99.90
12682;DHT22;6405;59.208;18.216;2024-01-16T12:45:23;-10.90;99.90
12682;DHT22;6405;59.208;18.216;2024-01-16T12:47:53;-10.90;99.90
12682;DHT22;6405;59.208;18.216;2024-01-16T12:50:22;-11.00;99.90
12682;DHT22;6405;59.208;18.216;2024-01-16T12:55:26;-11.00;99.90
12682;DHT22;6405;59.208;18.216;2024-01-16T12:58:21;-11.00;99.90
12682;DHT22;6405;59.208;18.216;2024-01-16T13:00:50;-11.10;99.90
12682;DHT22;6405;59.208;18.216;2024-01-16T13:03:20;-11.10;99.90
12682;DHT22;6405;59.208;18.216;2024-01-16T13:05:55;-11.10;99.90
12682;DHT22;6405;59.208;18.216;2024-01-16T13:08:21;-11.10;99.90
12682;DHT22;6405;59.208;18.216;2024-01-16T13:11:02;-11.20;99.90
12682;DHT22;6405;59.208;18.216;2024-01-16T13:13:29;-11.30;99.90
12682;DHT22;6405;59.208;18.216;2024-01-16T13:15:55;-11.30;99.90
12682;DHT22;6405;59.208;18.216;2024-01-16T13:18:24;-11.40;99.90
12682;DHT22;6405;59.208;18.216;2024-01-16T13:20:54;-11.50;99.90
12682;DHT22;6405;59.208;18.216;2024-01-16T13:23:21;-11.50;99.90
12682;DHT22;6405;59.208;18.216;2024-01-16T13:25:48;-11.60;99.90
12682;DHT22;6405;59.208;18.216;2024-01-16T13:28:15;-11.60;99.90
12682;DHT22;6405;59.208;18.216;2024-01-16T13:30:45;-11.70;99.90
12682;DHT22;6405;59.208;18.216;2024-01-16T13:33:12;-11.80;99.90
12682;DHT22;6405;59.208;18.216;2024-01-16T13:35:45;-11.90;99.90
12682;DHT22;6405;59.208;18.216;2024-01-16T13:38:14;-11.90;99.90
12682;DHT22;6405;59.208;18.216;2024-01-16T13:40:45;-11.90;99.90
12682;DHT22;6405;59.208;18.216;2024-01-16T13:43:10;-12.00;99.90
12682;DHT22;6405;59.208;18.216;2024-01-16T13:45:37;-12.00;99.90
12682;DHT22;6405;59.208;18.216;2024-01-16T13:48:04;-12.10;99.90
12682;DHT22;6405;59.208;18.216;2024-01-16T13:50:32;-12.10;99.90
12682;DHT22;6405;59.208;18.216;2024-01-16T13:52:59;-12.20;99.90
12682;DHT22;6405;59.208;18.216;2024-01-16T13:55:25;-12.30;99.90
12682;DHT22;6405;59.208;18.216;2024-01-16T13:57:51;-12.30;99.90
12682;DHT22;6405;59.208;18.216;2024-01-16T14:00:17;-12.40;99.90
12682;DHT22;6405;59.208;18.216;2024-01-16T14:02:44;-12.40;99.90
12682;DHT22;6405;59.208;18.216;2024-01-16T14:05:12;-12.50;99.90
12682;DHT22;6405;59.208;18.216;2024-01-16T14:07:41;-12.50;99.90
12682;DHT22;6405;59.208;18.216;2024-01-16T14:10:11;-12.50;99.90
12682;DHT22;6405;59.208;18.216;2024-01-16T14:12:41;-12.50;99.90
12682;DHT22;6405;59.208;18.216;2024-01-16T14:15:15;-12.60;99.90
12682;DHT22;6405;59.208;18.216;2024-01-16T14:18:00;-12.60;99.90
12682;DHT22;6405;59.208;18.216;2024-01-16T14:20:26;-12.90;99.90
12682;DHT22;6405;59.208;18.216;2024-01-16T14:22:55;-12.80;99.90
12682;DHT22;6405;59.208;18.216;2024-01-16T14:25:21;-12.90;99.90
12682;DHT22;6405;59.208;18.216;2024-01-16T14:28:03;-13.00;99.90
12682;DHT22;6405;59.208;18.216;2024-01-16T14:30:31;-13.10;99.90
12682;DHT22;6405;59.208;18.216;2024-01-16T14:32:57;-13.10;99.90
12682;DHT22;6405;59.208;18.216;2024-01-16T14:35:22;-13.20;99.90
12682;DHT22;6405;59.208;18.216;2024-01-16T14:37:53;-13.30;99.90
12682;DHT22;6405;59.208;18.216;2024-01-16T14:40:19;-13.30;99.90
12682;DHT22;6405;59.208;18.216;2024-01-16T14:42:52;-13.40;99.90
12682;DHT22;6405;59.208;18.216;2024-01-16T14:45:22;-13.50;99.90
12682;DHT22;6405;59.208;18.216;2024-01-16T14:47:49;-13.60;99.90
12682;DHT22;6405;59.208;18.216;2024-01-16T14:50:16;-13.70;99.90
12682;DHT22;6405;59.208;18.216;2024-01-16T14:52:46;-13.80;99.90
12682;DHT22;6405;59.208;18.216;2024-01-16T14:55:12;-13.90;99.90
12682;DHT22;6405;59.208;18.216;2024-01-16T14:57:38;-14.00;99.90
12682;DHT22;6405;59.208;18.216;2024-01-16T15:00:13;-14.10;99.90
12682;DHT22;6405;59.208;18.216;2024-01-16T15:02:49;-14.40;99.90
12682;DHT22;6405;59.208;18.216;2024-01-16T15:05:15;-14.30;99.90
12682;DHT22;6405;59.208;18.216;2024-01-16T15:07:41;-14.40;99.90
12682;DHT22;6405;59.208;18.216;2024-01-16T15:10:08;-14.50;99.90
12682;DHT22;6405;59.208;18.216;2024-01-16T15:12:38;-14.50;99.90
12682;DHT22;6405;59.208;18.216;2024-01-16T15:15:08;-14.50;99.90
12682;DHT22;6405;59.208;18.216;2024-01-16T15:17:36;-14.50;99.90
12682;DHT22;6405;59.208;18.216;2024-01-16T15:20:02;-14.50;99.90
12682;DHT22;6405;59.208;18.216;2024-01-16T15:22:29;-14.50;99.90
12682;DHT22;6405;59.208;18.216;2024-01-16T15:24:57;-14.60;99.90
12682;DHT22;6405;59.208;18.216;2024-01-16T15:27:23;-14.60;99.90
12682;DHT22;6405;59.208;18.216;2024-01-16T15:29:48;-14.60;99.90